sensor_id;sensor_type;location;lat;lon;timestamp;temperature;humidity
66140;DHT22;52945;51.908;8.364;2023-02-01T00:02:44;7.50;69.90
66140;DHT22;52945;51.908;8.364;2023-02-01T00:05:55;7.40;69.70
66140;DHT22;52945;51.908;8.364;2023-02-01T00:08:56;7.40;70.10
66140;DHT22;52945;51.908;8.364;2023-02-01T00:11:57;7.40;69.70
66140;DHT22;52945;51.908;8.364;2023-02-01T00:14:59;7.40;69.90
66140;DHT22;52945;51.908;8.364;2023-02-01T00:18:00;7.40;70.00
66140;DHT22;52945;51.908;8.364;2023-02-01T00:21:01;7.40;70.00
66140;DHT22;52945;51.908;8.364;2023-02-01T00:24:02;7.40;69.90
66140;DHT22;52945;51.908;8.364;2023-02-01T00:27:02;7.30;69.90
66140;DHT22;52945;51.908;8.364;2023-02-01T00:30:03;7.20;69.70
66140;DHT22;52945;51.908;8.364;2023-02-01T00:33:04;7.30;69.80
66140;DHT22;52945;51.908;8.364;2023-02-01T00:36:06;7.30;70.00
66140;DHT22;52945;51.908;8.364;2023-02-01T00:39:07;7.20;70.10
66140;DHT22;52945;51.908;8.364;2023-02-01T00:42:08;7.20;70.20
66140;DHT22;52945;51.908;8.364;2023-02-01T00:45:10;7.20;70.10
66140;DHT22;52945;51.908;8.364;2023-02-01T00:48:11;7.30;70.30
66140;DHT22;52945;51.908;8.364;2023-02-01T00:51:17;7.30;70.50
66140;DHT22;52945;51.908;8.364;2023-02-01T00:54:18;7.30;70.40
66140;DHT22;52945;51.908;8.364;2023-02-01T00:57:18;7.20;70.40
66140;DHT22;52945;51.908;8.364;2023-02-01T01:00:19;7.30;70.50
66140;DHT22;52945;51.908;8.364;2023-02-01T01:03:19;7.20;70.70
66140;DHT22;52945;51.908;8.364;2023-02-01T01:06:23;7.30;70.80
66140;DHT22;52945;51.908;8.364;2023-02-01T01:09:24;7.40;70.80
66140;DHT22;52945;51.908;8.364;2023-02-01T01:12:24;7.20;70.80
66140;DHT22;52945;51.908;8.364;2023-02-01T01:15:25;7.30;71.00
66140;DHT22;52945;51.908;8.364;2023-02-01T01:18:26;7.30;71.00
66140;DHT22;52945;51.908;8.364;2023-02-01T01:21:27;7.30;70.90
66140;DHT22;52945;51.908;8.364;2023-02-01T01:24:28;7.40;70.90
66140;DHT22;52945;51.908;8.364;2023-02-01T01:27:28;7.40;70.90
66140;DHT22;52945;51.908;8.364;2023-02-01T01:30:29;7.30;71.00
66140;DHT22;52945;51.908;8.364;2023-02-01T01:33:30;7.30;71.10
66140;DHT22;52945;51.908;8.364;2023-02-01T01:36:30;7.40;70.80
66140;DHT22;52945;51.908;8.364;2023-02-01T01:39:31;7.30;70.70
66140;DHT22;52945;51.908;8.364;2023-02-01T01:42:38;7.40;70.50
66140;DHT22;52945;51.908;8.364;2023-02-01T01:45:38;7.50;70.60
66140;DHT22;52945;51.908;8.364;2023-02-01T01:48:39;7.50;70.70
66140;DHT22;52945;51.908;8.364;2023-02-01T01:51:42;7.50;70.60
66140;DHT22;52945;51.908;8.364;2023-02-01T01:54:47;7.50;70.70
66140;DHT22;52945;51.908;8.364;2023-02-01T01:58:00;7.50;70.80
66140;DHT22;52945;51.908;8.364;2023-02-01T02:01:01;7.50;70.80
66140;DHT22;52945;51.908;8.364;2023-02-01T02:04:02;7.50;70.90
66140;DHT22;52945;51.908;8.364;2023-02-01T02:11:00;7.50;70.80
66140;DHT22;52945;51.908;8.364;2023-02-01T02:14:01;7.40;71.00
66140;DHT22;52945;51.908;8.364;2023-02-01T02:24:15;7.60;70.60
66140;DHT22;52945;51.908;8.364;2023-02-01T02:27:56;7.50;70.40
66140;DHT22;52945;51.908;8.364;2023-02-01T02:34:20;7.60;70.30
66140;DHT22;52945;51.908;8.364;2023-02-01T02:37:51;7.60;70.00
66140;DHT22;52945;51.908;8.364;2023-02-01T02:41:07;7.60;70.20
66140;DHT22;52945;51.908;8.364;2023-02-01T02:44:14;7.60;69.60
66140;DHT22;52945;51.908;8.364;2023-02-01T02:48:13;7.60;69.30
66140;DHT22;52945;51.908;8.364;2023-02-01T02:51:22;7.60;69.00
66140;DHT22;52945;51.908;8.364;2023-02-01T02:54:46;7.70;68.60
66140;DHT22;52945;51.908;8.364;2023-02-01T02:57:47;7.70;68.60
66140;DHT22;52945;51.908;8.364;2023-02-01T03:05:35;7.70;67.90
66140;DHT22;52945;51.908;8.364;2023-02-01T03:08:36;7.70;67.60
66140;DHT22;52945;51.908;8.364;2023-02-01T03:11:37;7.70;67.40
66140;DHT22;52945;51.908;8.364;2023-02-01T03:15:03;7.60;67.40
66140;DHT22;52945;51.908;8.364;2023-02-01T03:18:13;7.60;67.20
66140;DHT22;52945;51.908;8.364;2023-02-01T03:24:30;7.60;66.90
66140;DHT22;52945;51.908;8.364;2023-02-01T03:27:42;7.70;67.00
66140;DHT22;52945;51.908;8.364;2023-02-01T03:30:43;7.70;67.00
66140;DHT22;52945;51.908;8.364;2023-02-01T03:33:44;7.70;67.10
66140;DHT22;52945;51.908;8.364;2023-02-01T03:36:49;7.70;67.20
66140;DHT22;52945;51.908;8.364;2023-02-01T03:39:59;7.70;67.20
66140;DHT22;52945;51.908;8.364;2023-02-01T03:43:01;7.70;67.00
66140;DHT22;52945;51.908;8.364;2023-02-01T03:46:08;7.70;67.00
66140;DHT22;52945;51.908;8.364;2023-02-01T03:49:16;7.70;66.80
66140;DHT22;52945;51.908;8.364;2023-02-01T03:52:23;7.70;67.10
66140;DHT22;52945;51.908;8.364;2023-02-01T03:55:26;7.70;67.20
66140;DHT22;52945;51.908;8.364;2023-02-01T03:58:28;7.70;67.20
66140;DHT22;52945;51.908;8.364;2023-02-01T04:01:30;7.70;67.30
66140;DHT22;52945;51.908;8.364;2023-02-01T04:04:31;7.70;67.00
66140;DHT22;52945;51.908;8.364;2023-02-01T04:07:31;7.70;66.90
66140;DHT22;52945;51.908;8.364;2023-02-01T04:10:32;7.70;67.10
66140;DHT22;52945;51.908;8.364;2023-02-01T04:13:33;7.70;67.00
66140;DHT22;52945;51.908;8.364;2023-02-01T04:16:34;7.80;66.60
66140;DHT22;52945;51.908;8.364;2023-02-01T04:19:34;7.80;66.80
66140;DHT22;52945;51.908;8.364;2023-02-01T04:22:35;7.80;66.60
66140;DHT22;52945;51.908;8.364;2023-02-01T04:25:35;7.80;66.60
66140;DHT22;52945;51.908;8.364;2023-02-01T04:28:36;7.80;66.60
66140;DHT22;52945;51.908;8.364;2023-02-01T04:31:36;7.90;66.50
66140;DHT22;52945;51.908;8.364;2023-02-01T04:34:37;7.80;66.60
66140;DHT22;52945;51.908;8.364;2023-02-01T04:37:38;7.90;66.70
66140;DHT22;52945;51.908;8.364;2023-02-01T04:40:38;7.80;66.60
66140;DHT22;52945;51.908;8.364;2023-02-01T04:43:39;7.80;66.60
66140;DHT22;52945;51.908;8.364;2023-02-01T04:46:40;7.90;66.80
66140;DHT22;52945;51.908;8.364;2023-02-01T04:49:40;8.00;67.10
66140;DHT22;52945;51.908;8.364;2023-02-01T04:52:41;7.90;67.20
66140;DHT22;52945;51.908;8.364;2023-02-01T04:55:43;8.00;67.10
66140;DHT22;52945;51.908;8.364;2023-02-01T04:58:43;7.90;67.70
66140;DHT22;52945;51.908;8.364;2023-02-01T05:01:44;7.90;68.00
66140;DHT22;52945;51.908;8.364;2023-02-01T05:04:45;8.00;68.60
66140;DHT22;52945;51.908;8.364;2023-02-01T05:07:46;8.00;68.80
66140;DHT22;52945;51.908;8.364;2023-02-01T05:10:47;7.90;68.70
66140;DHT22;52945;51.908;8.364;2023-02-01T05:13:48;8.00;69.00
66140;DHT22;52945;51.908;8.364;2023-02-01T05:16:48;8.00;69.30
66140;DHT22;52945;51.908;8.364;2023-02-01T05:19:49;7.90;68.70
66140;DHT22;52945;51.908;8.364;2023-02-01T05:22:50;7.90;69.00
66140;DHT22;52945;51.908;8.364;2023-02-01T05:25:50;7.90;68.50
66140;DHT22;52945;51.908;8.364;2023-02-01T05:28:51;7.80;68.40
66140;DHT22;52945;51.908;8.364;2023-02-01T05:31:52;7.80;68.40
66140;DHT22;52945;51.908;8.364;2023-02-01T05:34:52;7.80;68.50
66140;DHT22;52945;51.908;8.364;2023-02-01T05:37:53;7.80;68.70
66140;DHT22;52945;51.908;8.364;2023-02-01T05:40:53;7.90;68.70
66140;DHT22;52945;51.908;8.364;2023-02-01T05:43:54;7.80;68.60
66140;DHT22;52945;51.908;8.364;2023-02-01T05:46:55;7.80;68.30
66140;DHT22;52945;51.908;8.364;2023-02-01T05:49:55;7.90;68.50
66140;DHT22;52945;51.908;8.364;2023-02-01T05:52:56;7.80;68.40
66140;DHT22;52945;51.908;8.364;2023-02-01T05:55:56;7.90;68.30
66140;DHT22;52945;51.908;8.364;2023-02-01T05:58:57;7.90;68.20
66140;DHT22;52945;51.908;8.364;2023-02-01T06:01:57;7.80;68.00
66140;DHT22;52945;51.908;8.364;2023-02-01T06:04:58;7.90;68.00
66140;DHT22;52945;51.908;8.364;2023-02-01T06:07:58;7.80;68.00
66140;DHT22;52945;51.908;8.364;2023-02-01T06:11:00;7.90;68.10
66140;DHT22;52945;51.908;8.364;2023-02-01T06:14:01;7.90;68.00
66140;DHT22;52945;51.908;8.364;2023-02-01T06:17:02;8.00;67.90
66140;DHT22;52945;51.908;8.364;2023-02-01T06:20:04;7.90;67.80
66140;DHT22;52945;51.908;8.364;2023-02-01T06:23:06;7.90;68.00
66140;DHT22;52945;51.908;8.364;2023-02-01T06:26:07;7.90;68.00
66140;DHT22;52945;51.908;8.364;2023-02-01T06:29:11;7.90;68.20
66140;DHT22;52945;51.908;8.364;2023-02-01T06:32:12;7.90;68.20
66140;DHT22;52945;51.908;8.364;2023-02-01T06:35:13;7.90;67.90
66140;DHT22;52945;51.908;8.364;2023-02-01T06:38:16;7.90;68.10
66140;DHT22;52945;51.908;8.364;2023-02-01T06:41:18;7.90;68.30
66140;DHT22;52945;51.908;8.364;2023-02-01T06:44:20;7.90;68.10
66140;DHT22;52945;51.908;8.364;2023-02-01T06:47:21;7.90;68.10
66140;DHT22;52945;51.908;8.364;2023-02-01T06:50:22;7.90;68.30
66140;DHT22;52945;51.908;8.364;2023-02-01T06:53:23;7.90;68.20
66140;DHT22;52945;51.908;8.364;2023-02-01T06:56:24;8.00;68.10
66140;DHT22;52945;51.908;8.364;2023-02-01T06:59:25;7.80;68.00
66140;DHT22;52945;51.908;8.364;2023-02-01T07:02:25;8.00;68.10
66140;DHT22;52945;51.908;8.364;2023-02-01T07:05:26;7.90;68.30
66140;DHT22;52945;51.908;8.364;2023-02-01T07:08:27;7.90;68.20
66140;DHT22;52945;51.908;8.364;2023-02-01T07:11:28;8.00;68.20
66140;DHT22;52945;51.908;8.364;2023-02-01T07:14:29;7.90;68.20
66140;DHT22;52945;51.908;8.364;2023-02-01T07:17:29;7.90;68.00
66140;DHT22;52945;51.908;8.364;2023-02-01T07:20:30;7.90;68.20
66140;DHT22;52945;51.908;8.364;2023-02-01T07:23:30;8.00;68.10
66140;DHT22;52945;51.908;8.364;2023-02-01T07:26:31;8.00;67.90
66140;DHT22;52945;51.908;8.364;2023-02-01T07:29:32;7.90;68.00
66140;DHT22;52945;51.908;8.364;2023-02-01T07:32:33;7.90;67.90
66140;DHT22;52945;51.908;8.364;2023-02-01T07:35:34;7.90;68.00
66140;DHT22;52945;51.908;8.364;2023-02-01T07:38:35;8.00;68.20
66140;DHT22;52945;51.908;8.364;2023-02-01T07:41:35;7.90;68.10
66140;DHT22;52945;51.908;8.364;2023-02-01T07:44:36;8.00;68.00
66140;DHT22;52945;51.908;8.364;2023-02-01T07:47:36;8.00;67.90
66140;DHT22;52945;51.908;8.364;2023-02-01T07:50:37;8.10;68.00
66140;DHT22;52945;51.908;8.364;2023-02-01T07:53:39;8.10;68.00
66140;DHT22;52945;51.908;8.364;2023-02-01T07:56:40;8.10;68.10
66140;DHT22;52945;51.908;8.364;2023-02-01T07:59:40;8.00;68.00
66140;DHT22;52945;51.908;8.364;2023-02-01T08:03:01;8.00;68.30
66140;DHT22;52945;51.908;8.364;2023-02-01T08:06:04;8.00;68.30
66140;DHT22;52945;51.908;8.364;2023-02-01T08:09:05;8.00;68.90
66140;DHT22;52945;51.908;8.364;2023-02-01T08:12:07;8.00;68.90
66140;DHT22;52945;51.908;8.364;2023-02-01T08:15:08;8.10;68.80
66140;DHT22;52945;51.908;8.364;2023-02-01T08:18:09;8.10;68.50
66140;DHT22;52945;51.908;8.364;2023-02-01T08:21:16;8.00;68.70
66140;DHT22;52945;51.908;8.364;2023-02-01T08:24:18;8.00;68.90
66140;DHT22;52945;51.908;8.364;2023-02-01T08:27:18;8.00;68.60
66140;DHT22;52945;51.908;8.364;2023-02-01T08:30:19;8.10;68.60
66140;DHT22;52945;51.908;8.364;2023-02-01T08:33:20;8.10;68.60
66140;DHT22;52945;51.908;8.364;2023-02-01T08:36:22;8.10;68.80
66140;DHT22;52945;51.908;8.364;2023-02-01T08:39:22;8.20;68.60
66140;DHT22;52945;51.908;8.364;2023-02-01T08:42:23;8.20;68.30
66140;DHT22;52945;51.908;8.364;2023-02-01T08:45:42;8.20;68.30
66140;DHT22;52945;51.908;8.364;2023-02-01T08:48:43;8.20;68.30
66140;DHT22;52945;51.908;8.364;2023-02-01T08:51:45;8.30;68.30
66140;DHT22;52945;51.908;8.364;2023-02-01T08:54:45;8.30;68.20
66140;DHT22;52945;51.908;8.364;2023-02-01T08:57:46;8.30;68.20
66140;DHT22;52945;51.908;8.364;2023-02-01T09:00:48;8.30;68.20
66140;DHT22;52945;51.908;8.364;2023-02-01T09:03:48;8.20;67.90
66140;DHT22;52945;51.908;8.364;2023-02-01T09:06:49;8.30;68.10
66140;DHT22;52945;51.908;8.364;2023-02-01T09:09:50;8.30;68.00
66140;DHT22;52945;51.908;8.364;2023-02-01T09:12:50;8.30;67.50
66140;DHT22;52945;51.908;8.364;2023-02-01T09:15:52;8.40;67.60
66140;DHT22;52945;51.908;8.364;2023-02-01T09:18:52;8.40;67.40
66140;DHT22;52945;51.908;8.364;2023-02-01T09:21:53;8.40;67.60
66140;DHT22;52945;51.908;8.364;2023-02-01T09:24:54;8.40;67.60
66140;DHT22;52945;51.908;8.364;2023-02-01T09:27:54;8.40;67.60
66140;DHT22;52945;51.908;8.364;2023-02-01T09:30:56;8.40;67.40
66140;DHT22;52945;51.908;8.364;2023-02-01T09:33:57;8.50;67.10
66140;DHT22;52945;51.908;8.364;2023-02-01T09:36:58;8.50;67.20
66140;DHT22;52945;51.908;8.364;2023-02-01T09:39:59;8.50;67.10
66140;DHT22;52945;51.908;8.364;2023-02-01T09:46:34;8.40;67.20
66140;DHT22;52945;51.908;8.364;2023-02-01T09:49:39;8.50;67.30
66140;DHT22;52945;51.908;8.364;2023-02-01T09:52:52;8.60;67.40
66140;DHT22;52945;51.908;8.364;2023-02-01T09:56:06;8.50;67.40
66140;DHT22;52945;51.908;8.364;2023-02-01T10:02:25;8.50;67.60
66140;DHT22;52945;51.908;8.364;2023-02-01T10:19:31;8.70;67.40
66140;DHT22;52945;51.908;8.364;2023-02-01T10:25:50;8.70;67.10
66140;DHT22;52945;51.908;8.364;2023-02-01T10:28:56;8.70;66.70
66140;DHT22;52945;51.908;8.364;2023-02-01T10:31:57;8.80;66.80
66140;DHT22;52945;51.908;8.364;2023-02-01T10:35:00;8.90;66.70
66140;DHT22;52945;51.908;8.364;2023-02-01T10:38:01;8.90;66.40
66140;DHT22;52945;51.908;8.364;2023-02-01T10:41:13;8.80;66.20
66140;DHT22;52945;51.908;8.364;2023-02-01T10:44:19;8.90;66.30
66140;DHT22;52945;51.908;8.364;2023-02-01T10:47:22;8.90;66.40
66140;DHT22;52945;51.908;8.364;2023-02-01T10:54:16;8.90;66.50
66140;DHT22;52945;51.908;8.364;2023-02-01T10:57:24;8.90;66.60
66140;DHT22;52945;51.908;8.364;2023-02-01T11:00:43;8.90;66.50
66140;DHT22;52945;51.908;8.364;2023-02-01T11:04:18;8.90;66.70
66140;DHT22;52945;51.908;8.364;2023-02-01T11:07:23;9.00;66.40
66140;DHT22;52945;51.908;8.364;2023-02-01T11:10:40;9.10;66.60
66140;DHT22;52945;51.908;8.364;2023-02-01T11:13:41;9.10;66.80
66140;DHT22;52945;51.908;8.364;2023-02-01T11:16:48;9.10;66.50
66140;DHT22;52945;51.908;8.364;2023-02-01T11:20:01;9.00;66.30
66140;DHT22;52945;51.908;8.364;2023-02-01T11:23:02;9.00;66.50
66140;DHT22;52945;51.908;8.364;2023-02-01T11:26:19;9.00;66.50
66140;DHT22;52945;51.908;8.364;2023-02-01T11:29:22;9.00;66.70
66140;DHT22;52945;51.908;8.364;2023-02-01T11:32:29;9.10;66.60
66140;DHT22;52945;51.908;8.364;2023-02-01T11:35:30;9.00;66.70
66140;DHT22;52945;51.908;8.364;2023-02-01T11:38:33;9.00;66.80
66140;DHT22;52945;51.908;8.364;2023-02-01T11:41:34;9.00;66.90
66140;DHT22;52945;51.908;8.364;2023-02-01T11:44:42;9.00;66.70
66140;DHT22;52945;51.908;8.364;2023-02-01T11:47:43;8.90;66.80
66140;DHT22;52945;51.908;8.364;2023-02-01T11:54:18;8.90;67.50
66140;DHT22;52945;51.908;8.364;2023-02-01T11:57:46;8.90;68.20
66140;DHT22;52945;51.908;8.364;2023-02-01T12:14:50;8.60;71.70
66140;DHT22;52945;51.908;8.364;2023-02-01T12:18:02;8.60;72.20
66140;DHT22;52945;51.908;8.364;2023-02-01T12:31:15;8.40;73.80
66140;DHT22;52945;51.908;8.364;2023-02-01T12:34:52;8.30;74.10
66140;DHT22;52945;51.908;8.364;2023-02-01T12:45:39;8.20;75.20
66140;DHT22;52945;51.908;8.364;2023-02-01T12:48:38;8.20;75.50
66140;DHT22;52945;51.908;8.364;2023-02-01T12:51:44;7.90;76.20
66140;DHT22;52945;51.908;8.364;2023-02-01T13:01:41;8.00;76.70
66140;DHT22;52945;51.908;8.364;2023-02-01T13:05:04;7.90;76.90
66140;DHT22;52945;51.908;8.364;2023-02-01T13:08:16;7.90;77.10
66140;DHT22;52945;51.908;8.364;2023-02-01T13:11:31;7.90;77.10
66140;DHT22;52945;51.908;8.364;2023-02-01T13:14:49;7.90;77.30
66140;DHT22;52945;51.908;8.364;2023-02-01T13:17:55;7.80;77.40
66140;DHT22;52945;51.908;8.364;2023-02-01T13:21:10;7.90;77.50
66140;DHT22;52945;51.908;8.364;2023-02-01T13:24:43;8.00;77.50
66140;DHT22;52945;51.908;8.364;2023-02-01T13:27:43;8.00;77.60
66140;DHT22;52945;51.908;8.364;2023-02-01T13:35:13;8.00;77.40
66140;DHT22;52945;51.908;8.364;2023-02-01T13:38:07;7.90;77.80
66140;DHT22;52945;51.908;8.364;2023-02-01T13:41:24;8.00;77.60
66140;DHT22;52945;51.908;8.364;2023-02-01T13:44:37;8.00;77.30
66140;DHT22;52945;51.908;8.364;2023-02-01T13:47:40;8.20;77.20
66140;DHT22;52945;51.908;8.364;2023-02-01T13:50:42;8.10;77.20
66140;DHT22;52945;51.908;8.364;2023-02-01T13:53:48;8.20;77.00
66140;DHT22;52945;51.908;8.364;2023-02-01T13:56:48;8.30;76.90
66140;DHT22;52945;51.908;8.364;2023-02-01T13:59:51;8.20;76.60
66140;DHT22;52945;51.908;8.364;2023-02-01T14:06:03;8.20;76.90
66140;DHT22;52945;51.908;8.364;2023-02-01T14:09:17;8.20;76.60
66140;DHT22;52945;51.908;8.364;2023-02-01T14:12:46;8.20;77.00
66140;DHT22;52945;51.908;8.364;2023-02-01T14:19:08;8.20;76.60
66140;DHT22;52945;51.908;8.364;2023-02-01T14:25:24;8.30;76.30
66140;DHT22;52945;51.908;8.364;2023-02-01T14:28:28;8.30;76.10
66140;DHT22;52945;51.908;8.364;2023-02-01T14:35:25;8.30;75.70
66140;DHT22;52945;51.908;8.364;2023-02-01T14:38:26;8.30;76.10
66140;DHT22;52945;51.908;8.364;2023-02-01T14:41:31;8.40;76.00
66140;DHT22;52945;51.908;8.364;2023-02-01T14:44:35;8.40;75.50
66140;DHT22;52945;51.908;8.364;2023-02-01T14:47:35;8.30;76.30
66140;DHT22;52945;51.908;8.364;2023-02-01T14:53:41;8.50;76.90
66140;DHT22;52945;51.908;8.364;2023-02-01T14:56:44;8.50;77.30
66140;DHT22;52945;51.908;8.364;2023-02-01T14:59:46;8.30;76.70
66140;DHT22;52945;51.908;8.364;2023-02-01T15:02:48;8.20;76.50
66140;DHT22;52945;51.908;8.364;2023-02-01T15:05:56;8.10;76.40
66140;DHT22;52945;51.908;8.364;2023-02-01T15:09:09;8.00;76.70
66140;DHT22;52945;51.908;8.364;2023-02-01T15:18:17;7.80;77.40
66140;DHT22;52945;51.908;8.364;2023-02-01T15:21:23;7.80;77.40
66140;DHT22;52945;51.908;8.364;2023-02-01T15:24:28;7.70;77.50
66140;DHT22;52945;51.908;8.364;2023-02-01T15:27:30;7.70;77.80
66140;DHT22;52945;51.908;8.364;2023-02-01T15:30:34;7.60;78.10
66140;DHT22;52945;51.908;8.364;2023-02-01T15:33:34;7.60;78.30
66140;DHT22;52945;51.908;8.364;2023-02-01T15:36:35;7.60;78.50
66140;DHT22;52945;51.908;8.364;2023-02-01T15:43:04;7.60;78.70
66140;DHT22;52945;51.908;8.364;2023-02-01T15:46:13;7.60;78.90
66140;DHT22;52945;51.908;8.364;2023-02-01T15:49:39;7.60;79.10
66140;DHT22;52945;51.908;8.364;2023-02-01T15:52:41;7.60;79.40
66140;DHT22;52945;51.908;8.364;2023-02-01T15:55:42;7.60;79.70
66140;DHT22;52945;51.908;8.364;2023-02-01T15:58:46;7.60;79.70
66140;DHT22;52945;51.908;8.364;2023-02-01T16:01:48;7.60;79.50
66140;DHT22;52945;51.908;8.364;2023-02-01T16:04:49;7.60;79.60
66140;DHT22;52945;51.908;8.364;2023-02-01T16:07:58;7.60;79.80
66140;DHT22;52945;51.908;8.364;2023-02-01T16:14:10;7.70;79.60
66140;DHT22;52945;51.908;8.364;2023-02-01T16:17:11;7.70;79.30
66140;DHT22;52945;51.908;8.364;2023-02-01T16:20:12;7.80;79.30
66140;DHT22;52945;51.908;8.364;2023-02-01T16:23:12;7.70;79.00
66140;DHT22;52945;51.908;8.364;2023-02-01T16:26:13;7.70;79.00
66140;DHT22;52945;51.908;8.364;2023-02-01T16:29:13;7.70;78.90
66140;DHT22;52945;51.908;8.364;2023-02-01T16:32:16;7.70;78.40
66140;DHT22;52945;51.908;8.364;2023-02-01T16:35:27;7.60;78.20
66140;DHT22;52945;51.908;8.364;2023-02-01T16:38:28;7.60;78.10
66140;DHT22;52945;51.908;8.364;2023-02-01T16:41:29;7.60;78.10
66140;DHT22;52945;51.908;8.364;2023-02-01T16:44:29;7.60;78.40
66140;DHT22;52945;51.908;8.364;2023-02-01T16:47:30;7.70;78.40
66140;DHT22;52945;51.908;8.364;2023-02-01T16:50:32;7.60;78.30
66140;DHT22;52945;51.908;8.364;2023-02-01T16:53:33;7.70;78.30
66140;DHT22;52945;51.908;8.364;2023-02-01T16:56:34;7.60;78.20
66140;DHT22;52945;51.908;8.364;2023-02-01T16:59:35;7.60;78.00
66140;DHT22;52945;51.908;8.364;2023-02-01T17:02:37;7.60;77.90
66140;DHT22;52945;51.908;8.364;2023-02-01T17:05:38;7.60;77.80
66140;DHT22;52945;51.908;8.364;2023-02-01T17:08:42;7.50;77.60
66140;DHT22;52945;51.908;8.364;2023-02-01T17:11:43;7.60;77.70
66140;DHT22;52945;51.908;8.364;2023-02-01T17:14:43;7.60;77.40
66140;DHT22;52945;51.908;8.364;2023-02-01T17:17:44;7.50;77.30
66140;DHT22;52945;51.908;8.364;2023-02-01T17:20:45;7.50;77.10
66140;DHT22;52945;51.908;8.364;2023-02-01T17:23:47;7.50;77.40
66140;DHT22;52945;51.908;8.364;2023-02-01T17:26:48;7.50;77.30
66140;DHT22;52945;51.908;8.364;2023-02-01T17:29:50;7.60;77.40
66140;DHT22;52945;51.908;8.364;2023-02-01T17:32:53;7.60;77.40
66140;DHT22;52945;51.908;8.364;2023-02-01T17:35:55;7.50;77.00
66140;DHT22;52945;51.908;8.364;2023-02-01T17:38:56;7.60;77.30
66140;DHT22;52945;51.908;8.364;2023-02-01T17:41:57;7.60;77.00
66140;DHT22;52945;51.908;8.364;2023-02-01T17:48:14;7.70;77.10
66140;DHT22;52945;51.908;8.364;2023-02-01T17:51:16;7.70;77.00
66140;DHT22;52945;51.908;8.364;2023-02-01T17:54:17;7.70;77.10
66140;DHT22;52945;51.908;8.364;2023-02-01T17:57:19;7.60;77.40
66140;DHT22;52945;51.908;8.364;2023-02-01T18:00:20;7.70;77.40
66140;DHT22;52945;51.908;8.364;2023-02-01T18:03:28;7.60;77.50
66140;DHT22;52945;51.908;8.364;2023-02-01T18:06:33;7.70;77.60
66140;DHT22;52945;51.908;8.364;2023-02-01T18:09:34;7.60;77.70
66140;DHT22;52945;51.908;8.364;2023-02-01T18:12:34;7.50;77.80
66140;DHT22;52945;51.908;8.364;2023-02-01T18:15:35;7.50;77.90
66140;DHT22;52945;51.908;8.364;2023-02-01T18:18:35;7.50;77.90
66140;DHT22;52945;51.908;8.364;2023-02-01T18:21:38;7.50;78.00
66140;DHT22;52945;51.908;8.364;2023-02-01T18:24:39;7.40;77.90
66140;DHT22;52945;51.908;8.364;2023-02-01T18:27:40;7.50;78.00
66140;DHT22;52945;51.908;8.364;2023-02-01T18:30:42;7.40;78.10
66140;DHT22;52945;51.908;8.364;2023-02-01T18:33:42;7.50;78.00
66140;DHT22;52945;51.908;8.364;2023-02-01T18:36:43;7.40;78.00
66140;DHT22;52945;51.908;8.364;2023-02-01T18:39:44;7.40;78.00
66140;DHT22;52945;51.908;8.364;2023-02-01T18:42:44;7.40;78.00
66140;DHT22;52945;51.908;8.364;2023-02-01T18:45:46;7.40;78.30
66140;DHT22;52945;51.908;8.364;2023-02-01T18:48:46;7.40;78.40
66140;DHT22;52945;51.908;8.364;2023-02-01T18:51:47;7.30;78.50
66140;DHT22;52945;51.908;8.364;2023-02-01T18:54:48;7.30;78.70
66140;DHT22;52945;51.908;8.364;2023-02-01T18:57:49;7.30;78.60
66140;DHT22;52945;51.908;8.364;2023-02-01T19:00:49;7.40;78.70
66140;DHT22;52945;51.908;8.364;2023-02-01T19:03:50;7.40;78.50
66140;DHT22;52945;51.908;8.364;2023-02-01T19:06:51;7.50;78.50
66140;DHT22;52945;51.908;8.364;2023-02-01T19:09:51;7.50;78.40
66140;DHT22;52945;51.908;8.364;2023-02-01T19:12:53;7.40;78.40
66140;DHT22;52945;51.908;8.364;2023-02-01T19:15:55;7.40;78.20
66140;DHT22;52945;51.908;8.364;2023-02-01T19:18:56;7.40;78.40
66140;DHT22;52945;51.908;8.364;2023-02-01T19:21:56;7.40;78.10
66140;DHT22;52945;51.908;8.364;2023-02-01T19:24:57;7.40;78.20
66140;DHT22;52945;51.908;8.364;2023-02-01T19:27:57;7.40;78.20
66140;DHT22;52945;51.908;8.364;2023-02-01T19:31:06;7.40;78.00
66140;DHT22;52945;51.908;8.364;2023-02-01T19:34:07;7.40;77.90
66140;DHT22;52945;51.908;8.364;2023-02-01T19:37:08;7.40;77.80
66140;DHT22;52945;51.908;8.364;2023-02-01T19:40:10;7.40;78.00
66140;DHT22;52945;51.908;8.364;2023-02-01T19:43:11;7.40;78.20
66140;DHT22;52945;51.908;8.364;2023-02-01T19:46:12;7.50;78.10
66140;DHT22;52945;51.908;8.364;2023-02-01T19:49:13;7.50;77.90
66140;DHT22;52945;51.908;8.364;2023-02-01T19:52:13;7.50;77.90
66140;DHT22;52945;51.908;8.364;2023-02-01T19:55:14;7.50;78.10
66140;DHT22;52945;51.908;8.364;2023-02-01T19:58:14;7.50;78.00
66140;DHT22;52945;51.908;8.364;2023-02-01T20:01:15;7.40;78.00
66140;DHT22;52945;51.908;8.364;2023-02-01T20:04:18;7.50;77.90
66140;DHT22;52945;51.908;8.364;2023-02-01T20:07:19;7.40;77.90
66140;DHT22;52945;51.908;8.364;2023-02-01T20:10:19;7.40;77.70
66140;DHT22;52945;51.908;8.364;2023-02-01T20:13:21;7.30;77.70
66140;DHT22;52945;51.908;8.364;2023-02-01T20:16:22;7.40;77.60
66140;DHT22;52945;51.908;8.364;2023-02-01T20:19:23;7.30;77.50
66140;DHT22;52945;51.908;8.364;2023-02-01T20:22:24;7.30;77.50
66140;DHT22;52945;51.908;8.364;2023-02-01T20:25:24;7.30;77.20
66140;DHT22;52945;51.908;8.364;2023-02-01T20:28:25;7.20;77.00
66140;DHT22;52945;51.908;8.364;2023-02-01T20:31:26;7.20;76.80
66140;DHT22;52945;51.908;8.364;2023-02-01T20:34:29;7.20;77.10
66140;DHT22;52945;51.908;8.364;2023-02-01T20:37:30;7.20;76.90
66140;DHT22;52945;51.908;8.364;2023-02-01T20:40:31;7.20;76.60
66140;DHT22;52945;51.908;8.364;2023-02-01T20:43:32;7.20;76.50
66140;DHT22;52945;51.908;8.364;2023-02-01T20:46:33;7.20;76.30
66140;DHT22;52945;51.908;8.364;2023-02-01T20:49:33;7.30;76.30
66140;DHT22;52945;51.908;8.364;2023-02-01T20:52:34;7.20;75.80
66140;DHT22;52945;51.908;8.364;2023-02-01T20:55:35;7.30;75.80
66140;DHT22;52945;51.908;8.364;2023-02-01T20:58:35;7.30;75.90
66140;DHT22;52945;51.908;8.364;2023-02-01T21:01:37;7.30;76.10
66140;DHT22;52945;51.908;8.364;2023-02-01T21:04:51;7.20;76.20
66140;DHT22;52945;51.908;8.364;2023-02-01T21:07:51;7.40;76.50
66140;DHT22;52945;51.908;8.364;2023-02-01T21:11:03;7.20;76.50
66140;DHT22;52945;51.908;8.364;2023-02-01T21:14:04;7.30;76.50
66140;DHT22;52945;51.908;8.364;2023-02-01T21:17:05;7.30;76.60
66140;DHT22;52945;51.908;8.364;2023-02-01T21:20:05;7.20;76.50
66140;DHT22;52945;51.908;8.364;2023-02-01T21:23:07;7.20;76.50
66140;DHT22;52945;51.908;8.364;2023-02-01T21:26:08;7.30;76.80
66140;DHT22;52945;51.908;8.364;2023-02-01T21:29:11;7.20;76.80
66140;DHT22;52945;51.908;8.364;2023-02-01T21:32:12;7.20;76.90
66140;DHT22;52945;51.908;8.364;2023-02-01T21:35:12;7.20;77.10
66140;DHT22;52945;51.908;8.364;2023-02-01T21:38:13;7.20;77.10
66140;DHT22;52945;51.908;8.364;2023-02-01T21:41:14;7.20;77.20
66140;DHT22;52945;51.908;8.364;2023-02-01T21:44:33;7.10;77.20
66140;DHT22;52945;51.908;8.364;2023-02-01T21:47:34;7.20;77.30